Time;durP1;ratioP1;P1;durP2;ratioP2;P2;SDS_P1;SDS_P2;PMS_P1;PMS_P2;Temp;Humidity;BMP_temperature;BMP_pressure;BME280_temperature;BME280_humidity;BME280_pressure;Samples;Min_cycle;Max_cycle;Signal;HPM_P1;HPM_P2
2022/09/03 00:00:48;;;;;;;;;;;;;;;21.30;60.56;98651.88;5077421;28;19916;-41
2022/09/03 00:03:21;;;;;;;;;;;;;;;21.37;61.00;98653.06;5059438;28;20396;-41
2022/09/03 00:05:59;;;;;;;;;;;;;;;21.09;62.40;98659.69;5059438;28;19992;-41
2022/09/03 00:08:31;;;;;;;;;;;;;;;21.47;61.60;98656.59;5060214;28;19916;-41
2022/09/03 00:11:16;;;;;;;;;;;;;;;21.50;60.45;98655.50;5077437;28;20808;-41
2022/09/03 00:13:43;;;;;;;;;;;;;;;21.47;60.90;98653.16;5076916;28;20022;-41
2022/09/03 00:16:10;;;;;;;;;;;;;;;21.12;64.08;98659.47;5058249;28;19996;-41
2022/09/03 00:18:36;;;;;;;;;;;;;;;21.10;63.97;98656.13;5059471;28;19924;-41
2022/09/03 00:21:08;;;;;;;;;;;;;;;21.96;59.77;98651.66;5060245;28;19970;-41
2022/09/03 00:23:36;;;;;;;;;;;;;;;21.14;61.28;98665.38;5057923;28;19920;-41
2022/09/03 00:26:07;;;;;;;;;;;;;;;21.80;59.56;98646.03;5058020;28;19916;-41
2022/09/03 00:28:37;;;;;;;;;;;;;;;21.51;60.89;98647.53;5077612;28;19946;-41
2022/09/03 00:31:11;;;;;;;;;;;;;;;21.31;60.71;98651.75;5058854;28;20696;-41
2022/09/03 00:33:37;;;;;;;;;;;;;;;21.76;59.21;98642.00;5076449;28;20588;-41
2022/09/03 00:36:02;;;;;;;;;;;;;;;21.23;60.50;98643.72;5057257;28;19920;-41
2022/09/03 00:38:28;;;;;;;;;;;;;;;21.47;60.94;98637.44;5058122;28;20427;-41
2022/09/03 00:41:15;;;;;;;;;;;;;;;21.04;62.53;98651.38;5077361;28;19920;-41
2022/09/03 00:43:50;;;;;;;;;;;;;;;21.20;62.84;98646.56;5057501;28;20361;-41
2022/09/03 00:46:21;;;;;;;;;;;;;;;21.51;60.18;98638.84;5077046;28;19928;-42
2022/09/03 00:49:05;;;;;;;;;;;;;;;21.34;61.18;98636.75;5077498;28;19920;-42
2022/09/03 00:51:36;;;;;;;;;;;;;;;21.05;63.18;98645.16;5076118;28;19946;-41
2022/09/03 00:54:04;;;;;;;;;;;;;;;21.15;62.88;98651.34;5076435;28;19930;-41
2022/09/03 00:56:35;;;;;;;;;;;;;;;20.79;63.25;98649.91;5076551;28;19920;-41
2022/09/03 00:59:23;;;;;;;;;;;;;;;20.99;64.15;98643.06;5076246;28;20496;-41
2022/09/03 01:02:08;;;;;;;;;;;;;;;21.14;64.09;98641.81;5056946;28;19927;-42
2022/09/03 01:04:45;;;;;;;;;;;;;;;21.26;63.20;98640.81;5076272;28;19966;-42
2022/09/03 01:07:17;;;;;;;;;;;;;;;21.05;63.35;98647.78;5076928;28;19931;-42
2022/09/03 01:10:01;;;;;;;;;;;;;;;20.67;65.41;98643.88;5076415;28;19966;-41
2022/09/03 01:12:45;;;;;;;;;;;;;;;20.81;64.71;98643.59;5075362;28;19924;-41
2022/09/03 01:15:21;;;;;;;;;;;;;;;20.91;64.46;98645.47;5075654;28;19920;-41
2022/09/03 01:17:55;;;;;;;;;;;;;;;20.24;66.32;98640.16;5057059;28;19920;-41
2022/09/03 01:20:23;;;;;;;;;;;;;;;20.66;66.22;98642.19;5075571;28;19920;-41
2022/09/03 01:23:00;;;;;;;;;;;;;;;20.99;63.58;98645.69;5055565;28;19942;-41
2022/09/03 01:25:35;;;;;;;;;;;;;;;20.46;66.93;98647.19;5040284;28;19926;-41
2022/09/03 01:28:05;;;;;;;;;;;;;;;20.54;67.29;98653.59;5075037;28;19916;-41
2022/09/03 01:30:30;;;;;;;;;;;;;;;20.48;66.97;98647.03;5075631;28;19920;-41
2022/09/03 01:32:58;;;;;;;;;;;;;;;20.33;66.79;98651.72;5058297;28;19920;-41
2022/09/03 01:35:33;;;;;;;;;;;;;;;20.85;65.41;98649.41;5057725;28;20607;-41
2022/09/03 01:38:25;;;;;;;;;;;;;;;21.08;65.10;98642.31;5075937;28;19996;-41
2022/09/03 01:43:53;;;;;;;;;;;;;;;20.80;65.42;98647.16;5074334;28;19927;-41
2022/09/03 01:46:20;;;;;;;;;;;;;;;20.60;64.35;98658.38;5073338;28;19920;-41
2022/09/03 01:48:51;;;;;;;;;;;;;;;20.70;64.18;98651.47;5075442;28;20004;-41
2022/09/03 01:51:28;;;;;;;;;;;;;;;20.57;65.54;98656.00;5055619;28;19920;-41
2022/09/03 01:54:13;;;;;;;;;;;;;;;21.02;64.63;98643.63;5056928;28;20377;-41
2022/09/03 01:57:02;;;;;;;;;;;;;;;20.68;64.15;98645.50;5054737;28;20374;-41
2022/09/03 01:59:27;;;;;;;;;;;;;;;20.39;67.89;98651.25;5062310;28;20030;-41
2022/09/03 02:01:58;;;;;;;;;;;;;;;20.71;66.31;98640.06;5073294;28;20007;-41
2022/09/03 02:04:24;;;;;;;;;;;;;;;20.75;66.96;98636.22;5075638;28;20014;-41
2022/09/03 02:06:50;;;;;;;;;;;;;;;20.87;65.71;98635.25;5074825;28;20014;-41
2022/09/03 02:09:16;;;;;;;;;;;;;;;20.65;66.08;98640.53;5056293;28;19916;-41
2022/09/03 02:11:41;;;;;;;;;;;;;;;20.45;66.94;98637.66;5074262;28;19970;-41
2022/09/03 02:14:06;;;;;;;;;;;;;;;20.70;65.79;98638.38;5056331;28;20011;-41
2022/09/03 02:16:32;;;;;;;;;;;;;;;20.72;65.38;98633.84;5074531;28;19923;-41
2022/09/03 02:19:02;;;;;;;;;;;;;;;20.80;66.00;98634.09;5057096;28;19923;-41
2022/09/03 02:21:29;;;;;;;;;;;;;;;20.51;65.45;98638.16;5054806;28;19979;-41
2022/09/03 02:23:54;;;;;;;;;;;;;;;20.51;65.52;98638.16;5057293;28;19955;-41
2022/09/03 02:26:20;;;;;;;;;;;;;;;19.93;69.26;98633.84;5043593;28;20007;-41
2022/09/03 02:28:46;;;;;;;;;;;;;;;20.58;66.56;98628.91;5056610;28;19958;-41
2022/09/03 02:31:11;;;;;;;;;;;;;;;20.55;66.83;98627.31;5055807;28;19920;-41
2022/09/03 02:33:37;;;;;;;;;;;;;;;20.42;68.26;98630.06;5073555;28;19924;-41
2022/09/03 02:36:04;;;;;;;;;;;;;;;20.29;68.11;98626.75;5054275;28;19920;-41
2022/09/03 02:38:29;;;;;;;;;;;;;;;20.56;67.89;98623.78;5074620;28;19916;-41
2022/09/03 02:40:54;;;;;;;;;;;;;;;20.19;69.04;98623.19;5074764;28;19927;-41
2022/09/03 02:43:26;;;;;;;;;;;;;;;20.44;67.71;98628.16;5073533;28;20097;-41
2022/09/03 02:45:53;;;;;;;;;;;;;;;20.13;70.21;98626.28;5056290;28;20412;-41
2022/09/03 02:48:20;;;;;;;;;;;;;;;20.26;69.72;98619.97;5074803;28;19916;-41
2022/09/03 02:50:45;;;;;;;;;;;;;;;20.39;69.31;98626.84;5055837;28;19947;-41
2022/09/03 02:53:10;;;;;;;;;;;;;;;20.36;68.98;98625.31;5072883;28;20035;-41
2022/09/03 02:55:36;;;;;;;;;;;;;;;20.34;69.15;98619.34;5073667;28;19924;-41
2022/09/03 02:58:01;;;;;;;;;;;;;;;20.55;67.70;98614.25;5074505;28;19924;-41
2022/09/03 03:00:27;;;;;;;;;;;;;;;20.30;68.46;98614.50;5072662;28;19959;-42
2022/09/03 03:02:54;;;;;;;;;;;;;;;20.25;68.55;98617.47;5055423;28;20012;-41
2022/09/03 03:05:20;;;;;;;;;;;;;;;20.38;67.57;98623.41;5074867;28;19920;-41
2022/09/03 03:07:46;;;;;;;;;;;;;;;20.28;67.87;98617.25;5057008;28;19920;-41
2022/09/03 03:10:11;;;;;;;;;;;;;;;20.55;67.78;98609.00;5077743;28;19920;-41
2022/09/03 03:12:36;;;;;;;;;;;;;;;20.50;68.63;98618.16;5075631;28;19923;-41
2022/09/03 03:15:02;;;;;;;;;;;;;;;20.03;70.52;98624.38;5077192;28;19920;-41
2022/09/03 03:17:27;;;;;;;;;;;;;;;20.02;69.01;98616.63;5078285;28;19920;-41
2022/09/03 03:19:53;;;;;;;;;;;;;;;20.25;69.12;98617.47;5077079;28;19916;-42
2022/09/03 03:22:18;;;;;;;;;;;;;;;20.29;69.87;98615.47;5077320;28;19973;-41
2022/09/03 03:24:43;;;;;;;;;;;;;;;20.44;69.16;98624.72;5075374;28;20026;-41
2022/09/03 03:27:10;;;;;;;;;;;;;;;20.03;70.68;98621.75;5076906;28;19951;-41
2022/09/03 03:29:35;;;;;;;;;;;;;;;20.57;68.81;98617.59;5078419;28;20393;-41
2022/09/03 03:32:00;;;;;;;;;;;;;;;20.14;69.99;98620.06;5077864;28;19916;-41
2022/09/03 03:34:25;;;;;;;;;;;;;;;20.37;69.89;98621.75;5076411;28;19949;-41
2022/09/03 03:36:51;;;;;;;;;;;;;;;19.95;71.25;98611.03;5077424;28;19969;-43
2022/09/03 03:39:16;;;;;;;;;;;;;;;20.11;70.99;98615.09;5076903;28;20016;-43
2022/09/03 03:41:41;;;;;;;;;;;;;;;20.20;72.25;98609.16;5077675;28;19920;-43
2022/09/03 03:44:07;;;;;;;;;;;;;;;19.85;71.17;98616.16;5076942;28;19919;-43
2022/09/03 03:46:33;;;;;;;;;;;;;;;19.94;71.51;98614.63;5075592;28;19924;-43
2022/09/03 03:48:59;;;;;;;;;;;;;;;19.97;71.22;98613.56;5078553;28;19966;-43
2022/09/03 03:51:24;;;;;;;;;;;;;;;20.25;71.00;98607.00;5076037;28;20010;-43
2022/09/03 03:53:52;;;;;;;;;;;;;;;20.04;70.96;98612.94;5077677;28;19935;-43
2022/09/03 03:56:17;;;;;;;;;;;;;;;19.76;72.46;98608.19;5074960;28;20033;-43
2022/09/03 03:58:43;;;;;;;;;;;;;;;19.76;73.13;98614.25;5058547;28;20392;-43
2022/09/03 04:01:34;;;;;;;;;;;;;;;19.73;73.59;98600.56;5076171;28;19924;-44
2022/09/03 04:03:59;;;;;;;;;;;;;;;19.54;73.87;98609.75;5072799;28;19963;-43
2022/09/03 04:06:25;;;;;;;;;;;;;;;19.81;75.10;98593.81;5075964;28;19928;-43
2022/09/03 04:08:50;;;;;;;;;;;;;;;19.74;73.84;98597.84;5076792;28;19916;-43
2022/09/03 04:11:19;;;;;;;;;;;;;;;19.73;74.79;98600.56;5075885;28;19920;-43
2022/09/03 04:13:45;;;;;;;;;;;;;;;19.72;75.11;98593.69;5073887;28;20733;-43
2022/09/03 04:16:18;;;;;;;;;;;;;;;19.45;75.25;98597.41;5075531;28;19916;-43
2022/09/03 04:18:43;;;;;;;;;;;;;;;19.59;74.51;98589.38;5077513;28;19924;-43
2022/09/03 04:21:10;;;;;;;;;;;;;;;20.04;73.50;98592.03;5077150;28;19942;-43
2022/09/03 04:23:36;;;;;;;;;;;;;;;19.70;74.09;98590.38;5074915;28;20382;-43
2022/09/03 04:26:01;;;;;;;;;;;;;;;19.71;74.50;98595.47;5074844;28;19920;-41
2022/09/03 04:28:27;;;;;;;;;;;;;;;19.86;73.69;98580.41;5075302;28;20410;-43
2022/09/03 04:30:52;;;;;;;;;;;;;;;19.50;75.27;98584.00;5075172;28;19923;-43
2022/09/03 04:33:17;;;;;;;;;;;;;;;19.90;74.15;98579.22;5072940;28;20551;-43
2022/09/03 04:35:43;;;;;;;;;;;;;;;20.33;72.54;98575.03;5074000;28;19924;-43
2022/09/03 04:38:08;;;;;;;;;;;;;;;19.72;74.45;98583.25;5074579;28;19916;-43
2022/09/03 04:40:33;;;;;;;;;;;;;;;19.60;75.53;98584.97;5074728;28;19924;-43
2022/09/03 04:42:59;;;;;;;;;;;;;;;19.77;75.14;98575.88;5072802;28;19917;-43
2022/09/03 04:45:24;;;;;;;;;;;;;;;19.42;76.18;98581.97;5072789;28;20034;-43
2022/09/03 04:47:59;;;;;;;;;;;;;;;19.57;76.67;98580.81;5077614;28;19923;-43
2022/09/03 04:50:26;;;;;;;;;;;;;;;19.80;75.75;98570.44;5076250;28;20342;-43
2022/09/03 04:52:51;;;;;;;;;;;;;;;19.73;76.45;98575.28;5076779;28;20304;-43
2022/09/03 04:55:18;;;;;;;;;;;;;;;19.41;77.25;98577.72;5077204;28;19923;-43
2022/09/03 04:57:43;;;;;;;;;;;;;;;19.62;76.15;98577.88;5066076;28;21008;-43
2022/09/03 05:00:10;;;;;;;;;;;;;;;19.85;75.53;98573.53;5075671;28;20019;-42
2022/09/03 05:02:35;;;;;;;;;;;;;;;19.72;76.16;98580.63;5075969;28;19920;-43
2022/09/03 05:05:01;;;;;;;;;;;;;;;19.68;76.84;98580.00;5070266;28;20345;-43
2022/09/03 05:07:28;;;;;;;;;;;;;;;19.56;76.78;98580.94;5074502;28;19927;-42
2022/09/03 05:09:53;;;;;;;;;;;;;;;20.06;75.05;98576.25;5076846;28;19920;-42
2022/09/03 05:12:19;;;;;;;;;;;;;;;19.85;75.68;98574.34;5078008;28;19927;-42
2022/09/03 05:14:44;;;;;;;;;;;;;;;20.22;74.98;98575.88;5076112;28;19982;-43
2022/09/03 05:17:10;;;;;;;;;;;;;;;20.05;73.85;98578.03;5078049;28;19912;-43
2022/09/03 05:19:35;;;;;;;;;;;;;;;19.95;74.00;98569.22;5064507;28;19924;-43
2022/09/03 05:22:00;;;;;;;;;;;;;;;20.05;73.94;98574.59;5074183;28;19965;-43
2022/09/03 05:24:25;;;;;;;;;;;;;;;20.05;73.61;98564.97;5075722;28;19923;-43
2022/09/03 05:26:51;;;;;;;;;;;;;;;20.37;72.87;98569.44;5075176;28;20039;-43
2022/09/03 05:29:18;;;;;;;;;;;;;;;20.15;74.23;98570.28;5074171;28;20396;-43
2022/09/03 05:31:43;;;;;;;;;;;;;;;20.09;74.11;98570.78;5072959;28;19916;-43
2022/09/03 05:34:09;;;;;;;;;;;;;;;20.25;74.76;98570.41;5073530;28;19931;-43
2022/09/03 05:36:35;;;;;;;;;;;;;;;20.39;73.67;98564.06;5074124;28;19924;-43
2022/09/03 05:39:00;;;;;;;;;;;;;;;20.72;72.31;98573.66;5071006;28;19916;-43
2022/09/03 05:41:26;;;;;;;;;;;;;;;20.12;73.46;98565.31;5075398;28;19920;-42
2022/09/03 05:43:55;;;;;;;;;;;;;;;20.38;72.96;98565.03;5075831;28;20049;-43
2022/09/03 05:46:21;;;;;;;;;;;;;;;20.25;74.59;98570.41;5074569;28;20421;-43
2022/09/03 05:48:46;;;;;;;;;;;;;;;20.10;74.97;98569.84;5074159;28;19927;-43
2022/09/03 05:51:15;;;;;;;;;;;;;;;20.64;71.31;98569.06;5073568;28;19938;-43
2022/09/03 05:53:40;;;;;;;;;;;;;;;20.56;73.38;98567.97;5074318;28;19924;-43
2022/09/03 05:56:10;;;;;;;;;;;;;;;20.23;75.31;98567.06;5075265;28;20022;-43
2022/09/03 05:58:38;;;;;;;;;;;;;;;20.86;71.61;98565.53;5057148;28;19920;-43
2022/09/03 06:01:30;;;;;;;;;;;;;;;20.40;72.50;98563.13;5073144;28;19917;-43
2022/09/03 06:04:02;;;;;;;;;;;;;;;21.24;69.87;98555.47;5068096;28;19978;-43
2022/09/03 06:06:28;;;;;;;;;;;;;;;20.66;72.55;98576.78;5039901;28;19938;-43
2022/09/03 06:08:54;;;;;;;;;;;;;;;21.49;68.11;98564.78;5075446;28;19920;-43
2022/09/03 06:11:20;;;;;;;;;;;;;;;21.42;69.35;98568.88;5056771;28;20638;-43
2022/09/03 06:13:46;;;;;;;;;;;;;;;21.15;68.18;98575.41;5074789;28;20468;-43
2022/09/03 06:16:11;;;;;;;;;;;;;;;21.13;69.26;98571.25;5070662;28;20018;-43
2022/09/03 06:18:36;;;;;;;;;;;;;;;21.42;68.15;98574.94;5073890;28;19949;-43
2022/09/03 06:21:02;;;;;;;;;;;;;;;21.80;66.86;98570.03;5071996;28;20376;-43
2022/09/03 06:23:28;;;;;;;;;;;;;;;22.24;65.70;98565.41;5072111;28;19919;-43
2022/09/03 06:25:59;;;;;;;;;;;;;;;22.17;62.77;98567.72;5075647;28;19961;-43
2022/09/03 06:28:26;;;;;;;;;;;;;;;22.00;64.37;98566.53;5073265;28;19924;-43
2022/09/03 06:30:51;;;;;;;;;;;;;;;22.80;63.13;98564.78;5075492;28;19916;-43
2022/09/03 06:33:17;;;;;;;;;;;;;;;22.29;65.18;98568.47;5072568;28;19977;-43
2022/09/03 06:35:42;;;;;;;;;;;;;;;22.25;64.12;98564.44;5074613;28;19966;-43
2022/09/03 06:38:11;;;;;;;;;;;;;;;21.69;65.30;98574.41;5056935;28;20320;-43
2022/09/03 06:40:36;;;;;;;;;;;;;;;22.36;64.10;98568.75;5074823;28;19997;-43
2022/09/03 06:43:02;;;;;;;;;;;;;;;22.71;62.98;98571.69;5075618;28;19979;-43
2022/09/03 06:45:28;;;;;;;;;;;;;;;23.43;59.00;98567.00;5072959;28;19919;-43
2022/09/03 06:47:53;;;;;;;;;;;;;;;23.15;60.07;98572.16;5075728;28;19954;-43
2022/09/03 06:50:18;;;;;;;;;;;;;;;23.43;63.02;98576.69;5064178;28;19924;-43
2022/09/03 06:52:44;;;;;;;;;;;;;;;23.98;56.58;98566.31;5075747;28;19928;-43
2022/09/03 06:55:09;;;;;;;;;;;;;;;24.54;53.22;98564.50;5073017;28;20285;-43
2022/09/03 06:57:34;;;;;;;;;;;;;;;23.91;56.08;98575.75;5074508;28;19921;-43
2022/09/03 07:00:01;;;;;;;;;;;;;;;24.16;56.13;98580.34;5075457;28;19920;-43
2022/09/03 07:02:27;;;;;;;;;;;;;;;23.44;57.31;98581.78;5077084;28;19964;-43
2022/09/03 07:04:52;;;;;;;;;;;;;;;24.57;53.26;98572.94;5076453;28;19948;-43
2022/09/03 07:07:17;;;;;;;;;;;;;;;24.55;55.45;98576.72;5076621;28;19970;-43
2022/09/03 07:09:42;;;;;;;;;;;;;;;25.51;52.80;98570.81;5074912;28;19956;-43
2022/09/03 07:12:09;;;;;;;;;;;;;;;25.88;49.11;98568.72;5076035;28;19973;-43
2022/09/03 07:14:35;;;;;;;;;;;;;;;24.50;50.08;98577.16;5074231;28;20009;-43
2022/09/03 07:17:00;;;;;;;;;;;;;;;24.32;52.33;98578.91;5068152;28;20011;-43
2022/09/03 07:19:25;;;;;;;;;;;;;;;24.29;53.50;98579.16;5074211;28;20407;-44
2022/09/03 07:21:51;;;;;;;;;;;;;;;24.49;52.30;98572.03;5057789;28;19915;-43
2022/09/03 07:24:17;;;;;;;;;;;;;;;25.21;52.89;98570.28;5070077;28;20034;-43
2022/09/03 07:26:43;;;;;;;;;;;;;;;26.04;48.35;98562.69;5073088;28;19945;-43
2022/09/03 07:29:10;;;;;;;;;;;;;;;26.19;47.94;98570.84;5074465;28;19916;-44
2022/09/03 07:31:36;;;;;;;;;;;;;;;24.75;51.53;98575.59;5076116;28;20027;-43
2022/09/03 07:34:04;;;;;;;;;;;;;;;24.76;51.20;98566.72;5074751;28;19979;-43
2022/09/03 07:36:30;;;;;;;;;;;;;;;25.03;50.96;98563.16;5073648;28;19923;-43
2022/09/03 07:38:56;;;;;;;;;;;;;;;24.77;51.31;98572.78;5074268;28;20376;-43
2022/09/03 07:41:22;;;;;;;;;;;;;;;25.81;49.00;98561.59;5075528;28;19927;-43
2022/09/03 07:43:47;;;;;;;;;;;;;;;25.72;49.25;98558.06;5073758;28;20002;-44
2022/09/03 07:46:22;;;;;;;;;;;;;;;25.66;46.66;98556.91;5065276;28;20308;-43
2022/09/03 07:48:51;;;;;;;;;;;;;;;25.15;48.25;98561.13;5076189;28;19916;-43
2022/09/03 07:51:17;;;;;;;;;;;;;;;25.11;47.99;98570.34;5075341;28;19931;-43
2022/09/03 07:53:43;;;;;;;;;;;;;;;25.17;49.96;98568.88;5076271;28;19924;-43
2022/09/03 07:56:09;;;;;;;;;;;;;;;27.04;44.52;98557.50;5060371;28;19912;-44
2022/09/03 07:58:35;;;;;;;;;;;;;;;26.21;45.19;98557.50;5078899;28;19967;-43
2022/09/03 08:01:04;;;;;;;;;;;;;;;26.25;47.42;98561.47;5078024;28;20689;-43
2022/09/03 08:03:29;;;;;;;;;;;;;;;25.79;45.15;98563.53;5042952;28;20568;-43
2022/09/03 08:05:58;;;;;;;;;;;;;;;26.42;47.49;98559.72;5078486;28;19916;-42
2022/09/03 08:08:23;;;;;;;;;;;;;;;26.44;43.68;98560.38;5060403;28;19916;-43
2022/09/03 08:10:49;;;;;;;;;;;;;;;26.59;45.19;98565.88;5078222;28;19923;-44
2022/09/03 08:13:14;;;;;;;;;;;;;;;26.07;44.15;98567.69;5075527;28;19934;-44
2022/09/03 08:15:41;;;;;;;;;;;;;;;25.19;49.03;98582.78;5075599;28;20687;-41
2022/09/03 08:18:06;;;;;;;;;;;;;;;27.98;42.83;98568.47;5079178;28;20952;-43
2022/09/03 08:20:31;;;;;;;;;;;;;;;26.92;43.00;98562.31;5077296;28;19920;-44
2022/09/03 08:23:01;;;;;;;;;;;;;;;26.18;46.36;98579.75;5071079;28;19924;-43
2022/09/03 08:25:26;;;;;;;;;;;;;;;25.51;46.47;98587.44;5067227;28;19920;-44
2022/09/03 08:27:52;;;;;;;;;;;;;;;25.87;47.44;98582.91;5076184;28;19916;-44
2022/09/03 08:30:18;;;;;;;;;;;;;;;26.74;45.22;98579.28;5076639;28;20883;-43
2022/09/03 08:32:43;;;;;;;;;;;;;;;26.72;44.44;98576.00;5075396;28;19935;-44
2022/09/03 08:35:08;;;;;;;;;;;;;;;27.02;44.82;98580.63;5070965;28;19920;-44
2022/09/03 08:37:34;;;;;;;;;;;;;;;27.78;42.18;98575.97;5076923;28;19920;-44
2022/09/03 08:39:59;;;;;;;;;;;;;;;26.59;44.12;98582.53;5075313;28;19959;-44
2022/09/03 08:42:31;;;;;;;;;;;;;;;25.81;46.75;98591.41;5075405;28;19931;-44
2022/09/03 08:45:01;;;;;;;;;;;;;;;26.33;45.29;98584.44;5057564;28;19926;-42
2022/09/03 08:47:33;;;;;;;;;;;;;;;27.49;43.83;98579.97;5056114;28;19926;-44
2022/09/03 08:50:11;;;;;;;;;;;;;;;27.42;41.99;98581.66;5077186;28;19916;-44
2022/09/03 08:52:41;;;;;;;;;;;;;;;26.72;44.00;98583.91;5059903;28;19916;-43
2022/09/03 08:55:09;;;;;;;;;;;;;;;26.40;45.36;98594.19;5057913;28;19927;-43
2022/09/03 08:57:40;;;;;;;;;;;;;;;26.41;45.41;98585.31;5073704;28;20270;-44
2022/09/03 09:00:06;;;;;;;;;;;;;;;26.39;45.04;98589.91;5058770;28;20345;-44
2022/09/03 09:02:31;;;;;;;;;;;;;;;27.07;44.44;98580.97;5077318;28;20006;-44
2022/09/03 09:04:59;;;;;;;;;;;;;;;26.76;46.27;98594.00;5075815;28;20387;-44
2022/09/03 09:07:31;;;;;;;;;;;;;;;26.98;45.23;98592.53;5075114;28;19924;-44
2022/09/03 09:10:11;;;;;;;;;;;;;;;26.89;44.53;98590.84;5056907;28;19973;-44
2022/09/03 09:12:46;;;;;;;;;;;;;;;27.49;44.13;98587.91;5058494;28;19926;-44
2022/09/03 09:15:30;;;;;;;;;;;;;;;27.82;41.78;98584.38;5073991;28;20407;-44
2022/09/03 09:17:55;;;;;;;;;;;;;;;27.09;44.35;98589.53;5073983;28;20409;-44
2022/09/03 09:20:43;;;;;;;;;;;;;;;27.70;42.71;98581.28;5075241;28;19916;-44
2022/09/03 09:23:31;;;;;;;;;;;;;;;27.22;43.28;98588.28;5071411;28;19942;-44
2022/09/03 09:25:58;;;;;;;;;;;;;;;28.05;42.85;98581.84;5065063;28;20392;-43
2022/09/03 09:28:24;;;;;;;;;;;;;;;29.53;39.56;98579.91;5073414;28;20389;-44
2022/09/03 09:30:50;;;;;;;;;;;;;;;27.36;42.22;98584.13;5075046;28;20466;-42
2022/09/03 09:33:16;;;;;;;;;;;;;;;28.29;41.22;98576.47;5076226;28;19924;-44
2022/09/03 09:35:41;;;;;;;;;;;;;;;27.56;42.52;98580.16;5073763;28;19927;-44
2022/09/03 09:38:07;;;;;;;;;;;;;;;27.66;43.41;98585.25;5054815;28;19920;-44
2022/09/03 09:40:32;;;;;;;;;;;;;;;28.19;42.57;98583.81;5070812;28;19920;-44
2022/09/03 09:43:14;;;;;;;;;;;;;;;29.53;39.67;98573.78;5074783;28;19920;-45
2022/09/03 09:45:44;;;;;;;;;;;;;;;29.25;39.38;98565.59;5075371;28;19916;-45
2022/09/03 09:48:30;;;;;;;;;;;;;;;30.74;38.05;98561.88;5056300;28;19963;-45
2022/09/03 09:51:05;;;;;;;;;;;;;;;30.78;36.92;98563.13;5074472;28;20925;-45
2022/09/03 09:53:31;;;;;;;;;;;;;;;29.90;37.23;98558.81;5074739;28;20984;-45
2022/09/03 09:55:57;;;;;;;;;;;;;;;29.70;38.00;98563.88;5056052;28;19941;-45
2022/09/03 09:58:27;;;;;;;;;;;;;;;29.76;38.53;98568.44;5075172;28;19920;-45
2022/09/03 10:00:56;;;;;;;;;;;;;;;29.59;38.03;98571.25;5056235;28;20280;-45
2022/09/03 10:03:21;;;;;;;;;;;;;;;29.13;40.64;98559.91;5075827;28;19924;-45
2022/09/03 10:05:55;;;;;;;;;;;;;;;29.68;38.01;98557.94;5074631;28;19979;-45
2022/09/03 10:08:20;;;;;;;;;;;;;;;28.57;39.69;98563.56;5056397;28;19920;-45
2022/09/03 10:10:48;;;;;;;;;;;;;;;28.46;40.72;98557.81;5074003;28;19935;-44
2022/09/03 10:13:23;;;;;;;;;;;;;;;29.34;39.89;98561.88;5056696;28;19931;-47
2022/09/03 10:15:58;;;;;;;;;;;;;;;28.49;40.85;98554.88;5054238;28;19920;-45
2022/09/03 10:18:27;;;;;;;;;;;;;;;29.94;38.97;98555.59;5075671;28;19920;-46
2022/09/03 10:21:12;;;;;;;;;;;;;;;31.50;37.21;98553.38;5058871;28;20334;-45
2022/09/03 10:23:56;;;;;;;;;;;;;;;30.82;36.90;98545.81;5075115;28;19947;-46
2022/09/03 10:26:27;;;;;;;;;;;;;;;28.84;40.07;98548.16;5072827;28;20016;-45
2022/09/03 10:28:55;;;;;;;;;;;;;;;29.71;37.87;98549.59;5075126;28;19981;-47
2022/09/03 10:31:38;;;;;;;;;;;;;;;29.33;38.13;98557.56;5057298;28;19919;-46
2022/09/03 10:34:23;;;;;;;;;;;;;;;30.03;37.51;98549.19;5074965;28;19924;-45
2022/09/03 10:37:08;;;;;;;;;;;;;;;30.43;37.37;98549.69;5073606;28;19920;-45
2022/09/03 10:39:46;;;;;;;;;;;;;;;28.92;39.26;98549.91;5034851;28;20399;-45
2022/09/03 10:42:29;;;;;;;;;;;;;;;28.98;38.57;98539.44;5075256;28;19920;-45
2022/09/03 10:44:59;;;;;;;;;;;;;;;30.06;39.78;98536.56;5055464;28;19963;-45
2022/09/03 10:47:50;;;;;;;;;;;;;;;29.11;38.46;98535.41;5055577;28;20724;-45
2022/09/03 10:50:16;;;;;;;;;;;;;;;29.19;40.33;98546.75;5057228;28;19939;-46
2022/09/03 10:52:48;;;;;;;;;;;;;;;29.82;39.24;98541.16;5076331;28;19920;-45
2022/09/03 10:55:17;;;;;;;;;;;;;;;29.88;39.46;98540.44;5074833;28;19920;-45
2022/09/03 10:57:59;;;;;;;;;;;;;;;30.50;37.55;98536.50;5057052;28;20014;-46
2022/09/03 11:00:24;;;;;;;;;;;;;;;30.81;37.96;98541.50;5057509;28;19916;-46
2022/09/03 11:03:06;;;;;;;;;;;;;;;30.75;38.10;98542.25;5076660;28;19931;-46
2022/09/03 11:05:37;;;;;;;;;;;;;;;28.65;41.79;98552.13;5070799;28;19920;-46
2022/09/03 11:08:02;;;;;;;;;;;;;;;29.11;42.17;98554.78;5073872;28;20026;-42
2022/09/03 11:10:28;;;;;;;;;;;;;;;30.63;38.55;98538.44;5072212;28;19920;-45
2022/09/03 11:13:01;;;;;;;;;;;;;;;31.21;37.25;98541.03;5056344;28;20007;-46
2022/09/03 11:15:41;;;;;;;;;;;;;;;29.68;40.52;98542.81;5054566;28;19927;-46
2022/09/03 11:18:06;;;;;;;;;;;;;;;29.80;40.43;98551.97;5040226;28;20346;-46
2022/09/03 11:20:31;;;;;;;;;;;;;;;30.10;39.41;98545.81;5076141;28;19916;-46
2022/09/03 11:22:58;;;;;;;;;;;;;;;29.07;40.49;98547.31;5071056;28;20800;-46
2022/09/03 11:25:27;;;;;;;;;;;;;;;30.41;39.86;98551.72;5055180;28;19941;-46
2022/09/03 11:28:01;;;;;;;;;;;;;;;30.56;38.34;98540.22;5057351;28;19927;-46
2022/09/03 11:30:45;;;;;;;;;;;;;;;29.47;39.83;98559.44;5051884;28;19969;-45
2022/09/03 11:33:10;;;;;;;;;;;;;;;29.09;41.02;98548.00;5077248;28;19935;-46
2022/09/03 11:35:35;;;;;;;;;;;;;;;29.14;40.16;98543.81;5077660;28;19920;-45
2022/09/03 11:38:02;;;;;;;;;;;;;;;30.89;38.95;98542.41;5078451;28;20380;-45
2022/09/03 11:40:42;;;;;;;;;;;;;;;30.70;38.44;98533.19;5061156;28;19958;-46
2022/09/03 11:43:23;;;;;;;;;;;;;;;30.20;37.98;98527.75;5063055;28;19926;-46
2022/09/03 11:45:49;;;;;;;;;;;;;;;30.69;39.91;98543.00;5076011;28;19920;-45
2022/09/03 11:48:46;;;;;;;;;;;;;;;30.09;39.01;98538.84;5076630;28;19927;-45
2022/09/03 11:51:16;;;;;;;;;;;;;;;30.14;39.63;98547.09;5042198;28;19950;-45
2022/09/03 11:53:51;;;;;;;;;;;;;;;30.66;39.32;98554.03;5056284;28;19993;-47
2022/09/03 11:56:18;;;;;;;;;;;;;;;31.51;38.88;98552.34;5075189;28;20338;-45
2022/09/03 11:58:43;;;;;;;;;;;;;;;31.30;37.93;98549.72;5075042;28;19970;-45
2022/09/03 12:01:12;;;;;;;;;;;;;;;31.14;38.46;98545.50;5058015;28;19920;-45
2022/09/03 12:03:41;;;;;;;;;;;;;;;31.14;38.71;98554.28;5075684;28;19920;-46
2022/09/03 12:06:15;;;;;;;;;;;;;;;30.48;40.01;98543.00;5077562;28;19942;-45
2022/09/03 12:08:59;;;;;;;;;;;;;;;30.52;40.55;98550.41;5076706;28;19923;-46
2022/09/03 12:11:34;;;;;;;;;;;;;;;29.91;40.47;98555.16;5074925;28;19920;-45
2022/09/03 12:14:03;;;;;;;;;;;;;;;28.76;45.17;98562.31;5056399;28;19924;-45
2022/09/03 12:16:47;;;;;;;;;;;;;;;29.35;44.04;98555.56;5057621;28;19958;-46
2022/09/03 12:19:17;;;;;;;;;;;;;;;29.05;42.37;98552.81;5069923;28;19919;-45
2022/09/03 12:21:47;;;;;;;;;;;;;;;28.72;44.69;98554.91;5063159;28;19919;-45
2022/09/03 12:24:13;;;;;;;;;;;;;;;29.16;45.60;98567.50;5076332;28;19927;-45
2022/09/03 12:26:39;;;;;;;;;;;;;;;29.46;44.39;98565.72;5042137;28;19920;-46
2022/09/03 12:29:04;;;;;;;;;;;;;;;29.56;44.29;98570.75;5075854;28;19943;-46
2022/09/03 12:31:31;;;;;;;;;;;;;;;28.70;46.08;98562.19;5057168;28;20085;-46
2022/09/03 12:33:57;;;;;;;;;;;;;;;28.41;46.11;98562.84;5058539;28;20690;-45
2022/09/03 12:36:23;;;;;;;;;;;;;;;29.91;44.56;98558.66;5075299;28;19920;-45
2022/09/03 12:38:49;;;;;;;;;;;;;;;29.63;44.38;98561.09;5077658;28;19968;-48
2022/09/03 12:41:20;;;;;;;;;;;;;;;30.02;43.15;98557.38;5075113;28;20388;-45
2022/09/03 12:43:52;;;;;;;;;;;;;;;30.46;41.43;98553.00;5076054;28;19920;-46
2022/09/03 12:46:19;;;;;;;;;;;;;;;29.14;44.24;98558.91;5076019;28;20006;-45
2022/09/03 12:48:55;;;;;;;;;;;;;;;29.30;44.59;98553.44;5077088;28;19927;-45
2022/09/03 12:51:20;;;;;;;;;;;;;;;28.63;47.28;98548.81;5077415;28;19966;-45
2022/09/03 12:53:45;;;;;;;;;;;;;;;30.75;42.22;98550.25;5058491;28;19920;-45
2022/09/03 12:56:11;;;;;;;;;;;;;;;31.37;39.71;98550.56;5074630;28;19923;-48
2022/09/03 12:58:36;;;;;;;;;;;;;;;30.68;41.16;98552.00;5058860;28;20946;-45
2022/09/03 13:01:07;;;;;;;;;;;;;;;31.01;39.52;98546.19;5077245;28;19946;-47